sensor_id;sensor_type;location;lat;lon;timestamp;P1;durP1;ratioP1;P2;durP2;ratioP2
77748;SDS011;66938;52.084;5.228;2024-02-21T00:00:06;10.7;;;3.8;;
77748;SDS011;66938;52.084;5.228;2024-02-21T00:01:43;12.3;;;4.0;;
77748;SDS011;66938;52.084;5.228;2024-02-21T00:04:56;12.3;;;4.1;;
77748;SDS011;66938;52.084;5.228;2024-02-21T00:06:32;11.8;;;4.1;;
77748;SDS011;66938;52.084;5.228;2024-02-21T00:08:08;14.3;;;4.0;;
77748;SDS011;66938;52.084;5.228;2024-02-21T00:09:44;11.5;;;3.8;;
77748;SDS011;66938;52.084;5.228;2024-02-21T00:12:57;12.2;;;3.7;;
77748;SDS011;66938;52.084;5.228;2024-02-21T00:14:33;12.7;;;4.0;;
77748;SDS011;66938;52.084;5.228;2024-02-21T00:16:09;11.2;;;3.6;;
77748;SDS011;66938;52.084;5.228;2024-02-21T00:19:21;12.1;;;4.0;;
77748;SDS011;66938;52.084;5.228;2024-02-21T00:20:57;12.3;;;4.5;;
77748;SDS011;66938;52.084;5.228;2024-02-21T00:22:33;12.4;;;3.9;;
77748;SDS011;66938;52.084;5.228;2024-02-21T00:25:45;12.2;;;4.2;;
77748;SDS011;66938;52.084;5.228;2024-02-21T00:27:21;10.5;;;4.0;;
77748;SDS011;66938;52.084;5.228;2024-02-21T00:28:58;13.2;;;3.9;;
77748;SDS011;66938;52.084;5.228;2024-02-21T00:32:10;12.6;;;3.8;;
77748;SDS011;66938;52.084;5.228;2024-02-21T00:33:46;15.6;;;4.3;;
77748;SDS011;66938;52.084;5.228;2024-02-21T00:35:22;13.1;;;3.8;;
77748;SDS011;66938;52.084;5.228;2024-02-21T00:36:58;11.5;;;3.5;;
77748;SDS011;66938;52.084;5.228;2024-02-21T00:40:11;12.9;;;3.8;;
77748;SDS011;66938;52.084;5.228;2024-02-21T00:41:47;14.0;;;3.9;;
77748;SDS011;66938;52.084;5.228;2024-02-21T00:43:23;12.0;;;3.8;;
77748;SDS011;66938;52.084;5.228;2024-02-21T00:46:36;13.6;;;3.8;;
77748;SDS011;66938;52.084;5.228;2024-02-21T00:48:12;13.5;;;3.8;;
77748;SDS011;66938;52.084;5.228;2024-02-21T00:49:48;14.1;;;3.7;;
77748;SDS011;66938;52.084;5.228;2024-02-21T00:53:00;11.9;;;3.7;;
77748;SDS011;66938;52.084;5.228;2024-02-21T00:54:36;15.4;;;3.9;;
77748;SDS011;66938;52.084;5.228;2024-02-21T00:56:12;15.4;;;4.61;;
77748;SDS011;66938;52.084;5.228;2024-02-21T00:57:48;14.4;;;4.2;;
77748;SDS011;66938;52.084;5.228;2024-02-21T01:01:01;11.8;;;4.41;;
77748;SDS011;66938;52.084;5.228;2024-02-21T01:02:38;13.4;;;4.1;;
77748;SDS011;66938;52.084;5.228;2024-02-21T01:04:14;12.2;;;3.6;;
77748;SDS011;66938;52.084;5.228;2024-02-21T01:07:26;11.6;;;3.7;;
77748;SDS011;66938;52.084;5.228;2024-02-21T01:09:02;12.8;;;4.1;;
77748;SDS011;66938;52.084;5.228;2024-02-21T01:10:38;12.3;;;4.5;;
77748;SDS011;66938;52.084;5.228;2024-02-21T01:13:51;12.9;;;4.0;;
77748;SDS011;66938;52.084;5.228;2024-02-21T01:15:27;14.1;;;4.2;;
77748;SDS011;66938;52.084;5.228;2024-02-21T01:17:03;11.9;;;4.1;;
77748;SDS011;66938;52.084;5.228;2024-02-21T01:20:15;11.7;;;3.9;;
77748;SDS011;66938;52.084;5.228;2024-02-21T01:21:51;13.8;;;4.61;;
77748;SDS011;66938;52.084;5.228;2024-02-21T01:23:28;11.2;;;4.0;;
77748;SDS011;66938;52.084;5.228;2024-02-21T01:25:04;11.5;;;3.9;;
77748;SDS011;66938;52.084;5.228;2024-02-21T01:28:17;12.6;;;4.2;;
77748;SDS011;66938;52.084;5.228;2024-02-21T01:29:54;12.2;;;4.5;;
77748;SDS011;66938;52.084;5.228;2024-02-21T01:31:30;15.6;;;4.7;;
77748;SDS011;66938;52.084;5.228;2024-02-21T01:34:42;12.7;;;4.3;;
77748;SDS011;66938;52.084;5.228;2024-02-21T01:36:19;13.9;;;4.3;;
77748;SDS011;66938;52.084;5.228;2024-02-21T01:37:54;13.6;;;4.8;;
77748;SDS011;66938;52.084;5.228;2024-02-21T01:41:07;14.2;;;4.61;;
77748;SDS011;66938;52.084;5.228;2024-02-21T01:42:43;14.6;;;4.41;;
77748;SDS011;66938;52.084;5.228;2024-02-21T01:44:19;14.3;;;5.5;;
77748;SDS011;66938;52.084;5.228;2024-02-21T01:45:55;12.5;;;4.41;;
77748;SDS011;66938;52.084;5.228;2024-02-21T01:49:11;9.9;;;4.0;;
77748;SDS011;66938;52.084;5.228;2024-02-21T01:50:48;13.5;;;4.5;;
77748;SDS011;66938;52.084;5.228;2024-02-21T01:52:25;11.7;;;4.61;;
77748;SDS011;66938;52.084;5.228;2024-02-21T01:55:38;13.9;;;5.11;;
77748;SDS011;66938;52.084;5.228;2024-02-21T01:57:14;13.2;;;4.91;;
77748;SDS011;66938;52.084;5.228;2024-02-21T01:58:50;12.8;;;4.61;;
77748;SDS011;66938;52.084;5.228;2024-02-21T02:02:04;12.0;;;5.11;;
77748;SDS011;66938;52.084;5.228;2024-02-21T02:03:42;14.4;;;4.91;;
77748;SDS011;66938;52.084;5.228;2024-02-21T02:05:19;14.3;;;4.61;;
77748;SDS011;66938;52.084;5.228;2024-02-21T02:06:56;13.2;;;5.11;;
77748;SDS011;66938;52.084;5.228;2024-02-21T02:10:12;13.4;;;5.3;;
77748;SDS011;66938;52.084;5.228;2024-02-21T02:11:48;14.0;;;5.5;;
77748;SDS011;66938;52.084;5.228;2024-02-21T02:13:24;12.7;;;4.61;;
77748;SDS011;66938;52.084;5.228;2024-02-21T02:16:39;12.9;;;4.7;;
77748;SDS011;66938;52.084;5.228;2024-02-21T02:18:18;14.0;;;4.91;;
77748;SDS011;66938;52.084;5.228;2024-02-21T02:19:56;16.61;;;5.6;;
77748;SDS011;66938;52.084;5.228;2024-02-21T02:21:37;10.21;;;5.3;;
77748;SDS011;66938;52.084;5.228;2024-02-21T02:24:57;12.5;;;5.6;;
77748;SDS011;66938;52.084;5.228;2024-02-21T02:26:34;10.6;;;5.0;;
77748;SDS011;66938;52.084;5.228;2024-02-21T02:28:10;13.8;;;5.6;;
77748;SDS011;66938;52.084;5.228;2024-02-21T02:31:22;14.7;;;6.1;;
77748;SDS011;66938;52.084;5.228;2024-02-21T02:32:58;13.9;;;5.7;;
77748;SDS011;66938;52.084;5.228;2024-02-21T02:34:35;13.8;;;6.3;;
77748;SDS011;66938;52.084;5.228;2024-02-21T02:36:11;17.0;;;5.9;;
77748;SDS011;66938;52.084;5.228;2024-02-21T02:39:25;12.2;;;5.7;;
77748;SDS011;66938;52.084;5.228;2024-02-21T02:41:01;14.6;;;5.7;;
77748;SDS011;66938;52.084;5.228;2024-02-21T02:42:37;18.11;;;6.2;;
77748;SDS011;66938;52.084;5.228;2024-02-21T02:45:49;15.2;;;6.1;;
77748;SDS011;66938;52.084;5.228;2024-02-21T02:47:25;13.1;;;5.8;;
77748;SDS011;66938;52.084;5.228;2024-02-21T02:49:01;14.0;;;6.1;;
77748;SDS011;66938;52.084;5.228;2024-02-21T02:52:13;13.3;;;5.7;;
77748;SDS011;66938;52.084;5.228;2024-02-21T02:53:50;12.9;;;5.9;;
77748;SDS011;66938;52.084;5.228;2024-02-21T02:55:26;12.2;;;5.0;;
77748;SDS011;66938;52.084;5.228;2024-02-21T02:58:38;11.6;;;5.11;;
77748;SDS011;66938;52.084;5.228;2024-02-21T03:00:14;13.9;;;5.4;;
77748;SDS011;66938;52.084;5.228;2024-02-21T03:01:51;12.4;;;5.11;;
77748;SDS011;66938;52.084;5.228;2024-02-21T03:03:27;10.7;;;5.4;;
77748;SDS011;66938;52.084;5.228;2024-02-21T03:06:49;14.3;;;5.4;;
77748;SDS011;66938;52.084;5.228;2024-02-21T03:08:25;11.8;;;5.11;;
77748;SDS011;66938;52.084;5.228;2024-02-21T03:10:02;12.7;;;5.2;;
77748;SDS011;66938;52.084;5.228;2024-02-21T03:13:15;12.7;;;5.2;;
77748;SDS011;66938;52.084;5.228;2024-02-21T03:14:51;10.5;;;5.0;;
77748;SDS011;66938;52.084;5.228;2024-02-21T03:16:27;14.0;;;5.5;;
77748;SDS011;66938;52.084;5.228;2024-02-21T03:18:03;12.1;;;5.4;;
77748;SDS011;66938;52.084;5.228;2024-02-21T03:21:16;14.6;;;5.5;;
77748;SDS011;66938;52.084;5.228;2024-02-21T03:22:52;15.0;;;5.5;;
77748;SDS011;66938;52.084;5.228;2024-02-21T03:24:28;10.7;;;5.6;;
77748;SDS011;66938;52.084;5.228;2024-02-21T03:27:43;13.7;;;5.6;;
77748;SDS011;66938;52.084;5.228;2024-02-21T03:29:20;12.9;;;5.2;;
77748;SDS011;66938;52.084;5.228;2024-02-21T03:30:56;13.5;;;6.2;;
77748;SDS011;66938;52.084;5.228;2024-02-21T03:34:08;12.7;;;5.7;;
77748;SDS011;66938;52.084;5.228;2024-02-21T03:35:46;13.4;;;5.7;;
77748;SDS011;66938;52.084;5.228;2024-02-21T03:37:22;14.1;;;5.7;;
77748;SDS011;66938;52.084;5.228;2024-02-21T03:38:58;13.8;;;5.4;;
77748;SDS011;66938;52.084;5.228;2024-02-21T03:42:11;14.8;;;6.1;;
77748;SDS011;66938;52.084;5.228;2024-02-21T03:43:47;14.5;;;5.7;;
77748;SDS011;66938;52.084;5.228;2024-02-21T03:45:23;13.8;;;5.8;;
77748;SDS011;66938;52.084;5.228;2024-02-21T03:48:36;14.5;;;6.2;;
77748;SDS011;66938;52.084;5.228;2024-02-21T03:50:13;13.3;;;5.6;;
77748;SDS011;66938;52.084;5.228;2024-02-21T03:51:49;11.6;;;5.4;;
77748;SDS011;66938;52.084;5.228;2024-02-21T03:55:01;11.6;;;5.4;;
77748;SDS011;66938;52.084;5.228;2024-02-21T03:56:38;13.1;;;5.8;;
77748;SDS011;66938;52.084;5.228;2024-02-21T03:58:15;13.8;;;6.0;;
77748;SDS011;66938;52.084;5.228;2024-02-21T03:59:51;11.7;;;5.5;;
77748;SDS011;66938;52.084;5.228;2024-02-21T04:03:03;13.0;;;5.6;;
77748;SDS011;66938;52.084;5.228;2024-02-21T04:04:42;13.1;;;5.6;;
77748;SDS011;66938;52.084;5.228;2024-02-21T04:06:19;9.1;;;4.7;;
77748;SDS011;66938;52.084;5.228;2024-02-21T04:09:31;12.0;;;5.0;;
77748;SDS011;66938;52.084;5.228;2024-02-21T04:11:07;13.0;;;5.4;;
77748;SDS011;66938;52.084;5.228;2024-02-21T04:12:43;12.1;;;5.4;;
77748;SDS011;66938;52.084;5.228;2024-02-21T04:15:55;11.6;;;5.7;;
77748;SDS011;66938;52.084;5.228;2024-02-21T04:17:31;14.3;;;5.7;;
77748;SDS011;66938;52.084;5.228;2024-02-21T04:19:07;11.9;;;5.11;;
77748;SDS011;66938;52.084;5.228;2024-02-21T04:20:43;10.5;;;6.0;;
77748;SDS011;66938;52.084;5.228;2024-02-21T04:23:56;11.8;;;5.6;;
77748;SDS011;66938;52.084;5.228;2024-02-21T04:25:32;9.4;;;5.2;;
77748;SDS011;66938;52.084;5.228;2024-02-21T04:27:08;10.21;;;5.5;;
77748;SDS011;66938;52.084;5.228;2024-02-21T04:30:21;11.6;;;5.9;;
77748;SDS011;66938;52.084;5.228;2024-02-21T04:31:58;11.5;;;5.8;;
77748;SDS011;66938;52.084;5.228;2024-02-21T04:33:33;11.3;;;6.2;;
77748;SDS011;66938;52.084;5.228;2024-02-21T04:36:45;12.0;;;5.7;;
77748;SDS011;66938;52.084;5.228;2024-02-21T04:38:21;12.9;;;6.3;;
77748;SDS011;66938;52.084;5.228;2024-02-21T04:39:58;11.1;;;6.4;;
77748;SDS011;66938;52.084;5.228;2024-02-21T04:43:10;10.8;;;6.0;;
77748;SDS011;66938;52.084;5.228;2024-02-21T04:44:46;10.5;;;6.2;;
77748;SDS011;66938;52.084;5.228;2024-02-21T04:46:22;13.3;;;6.8;;
77748;SDS011;66938;52.084;5.228;2024-02-21T04:47:58;11.0;;;6.5;;
77748;SDS011;66938;52.084;5.228;2024-02-21T04:51:11;10.3;;;6.3;;
77748;SDS011;66938;52.084;5.228;2024-02-21T04:52:47;14.4;;;7.5;;
77748;SDS011;66938;52.084;5.228;2024-02-21T04:54:23;12.3;;;6.6;;
77748;SDS011;66938;52.084;5.228;2024-02-21T04:57:39;11.8;;;7.0;;
77748;SDS011;66938;52.084;5.228;2024-02-21T04:59:16;11.6;;;7.0;;
77748;SDS011;66938;52.084;5.228;2024-02-21T05:00:53;11.3;;;6.9;;
77748;SDS011;66938;52.084;5.228;2024-02-21T05:04:05;12.3;;;6.7;;
77748;SDS011;66938;52.084;5.228;2024-02-21T05:05:41;13.9;;;7.3;;
77748;SDS011;66938;52.084;5.228;2024-02-21T05:07:17;11.7;;;6.9;;
77748;SDS011;66938;52.084;5.228;2024-02-21T05:08:53;11.9;;;7.8;;
77748;SDS011;66938;52.084;5.228;2024-02-21T05:12:06;12.1;;;7.9;;
77748;SDS011;66938;52.084;5.228;2024-02-21T05:13:42;12.7;;;7.5;;
77748;SDS011;66938;52.084;5.228;2024-02-21T05:15:18;12.4;;;8.0;;
77748;SDS011;66938;52.084;5.228;2024-02-21T05:18:31;12.5;;;7.5;;
77748;SDS011;66938;52.084;5.228;2024-02-21T05:20:07;14.1;;;7.8;;
77748;SDS011;66938;52.084;5.228;2024-02-21T05:21:44;11.6;;;7.5;;
77748;SDS011;66938;52.084;5.228;2024-02-21T05:24:56;11.7;;;7.5;;
77748;SDS011;66938;52.084;5.228;2024-02-21T05:26:32;12.1;;;7.2;;
77748;SDS011;66938;52.084;5.228;2024-02-21T05:28:08;13.4;;;7.8;;
77748;SDS011;66938;52.084;5.228;2024-02-21T05:29:47;11.7;;;7.2;;
77748;SDS011;66938;52.084;5.228;2024-02-21T05:33:03;14.1;;;7.5;;
77748;SDS011;66938;52.084;5.228;2024-02-21T05:34:40;11.2;;;7.8;;
77748;SDS011;66938;52.084;5.228;2024-02-21T05:36:16;11.4;;;7.2;;
77748;SDS011;66938;52.084;5.228;2024-02-21T05:39:28;11.4;;;7.2;;
77748;SDS011;66938;52.084;5.228;2024-02-21T05:41:04;14.0;;;7.8;;
77748;SDS011;66938;52.084;5.228;2024-02-21T05:42:41;12.1;;;7.1;;
77748;SDS011;66938;52.084;5.228;2024-02-21T05:45:54;10.9;;;6.9;;
77748;SDS011;66938;52.084;5.228;2024-02-21T05:47:30;11.6;;;6.8;;
77748;SDS011;66938;52.084;5.228;2024-02-21T05:49:06;15.0;;;7.3;;
77748;SDS011;66938;52.084;5.228;2024-02-21T05:50:43;14.0;;;7.6;;
77748;SDS011;66938;52.084;5.228;2024-02-21T05:53:55;12.4;;;7.2;;
77748;SDS011;66938;52.084;5.228;2024-02-21T05:55:31;11.3;;;7.1;;
77748;SDS011;66938;52.084;5.228;2024-02-21T05:57:07;11.1;;;7.1;;
77748;SDS011;66938;52.084;5.228;2024-02-21T06:00:20;12.6;;;7.6;;
77748;SDS011;66938;52.084;5.228;2024-02-21T06:01:56;13.6;;;7.7;;
77748;SDS011;66938;52.084;5.228;2024-02-21T06:03:32;11.6;;;7.2;;
77748;SDS011;66938;52.084;5.228;2024-02-21T06:06:46;12.4;;;7.7;;
77748;SDS011;66938;52.084;5.228;2024-02-21T06:08:22;13.8;;;8.6;;
77748;SDS011;66938;52.084;5.228;2024-02-21T06:09:58;15.0;;;8.4;;
77748;SDS011;66938;52.084;5.228;2024-02-21T06:13:10;13.8;;;8.6;;
77748;SDS011;66938;52.084;5.228;2024-02-21T06:14:46;14.8;;;8.31;;
77748;SDS011;66938;52.084;5.228;2024-02-21T06:16:22;12.9;;;8.71;;
77748;SDS011;66938;52.084;5.228;2024-02-21T06:17:58;15.6;;;9.4;;
77748;SDS011;66938;52.084;5.228;2024-02-21T06:21:12;17.5;;;9.4;;
77748;SDS011;66938;52.084;5.228;2024-02-21T06:22:47;15.9;;;9.1;;
77748;SDS011;66938;52.084;5.228;2024-02-21T06:24:24;16.2;;;9.5;;
77748;SDS011;66938;52.084;5.228;2024-02-21T06:27:36;16.0;;;9.5;;
77748;SDS011;66938;52.084;5.228;2024-02-21T06:29:12;16.7;;;9.81;;
77748;SDS011;66938;52.084;5.228;2024-02-21T06:30:48;17.8;;;10.0;;
77748;SDS011;66938;52.084;5.228;2024-02-21T06:34:00;15.1;;;9.0;;
77748;SDS011;66938;52.084;5.228;2024-02-21T06:35:36;15.2;;;9.81;;
77748;SDS011;66938;52.084;5.228;2024-02-21T06:37:15;18.11;;;10.1;;
77748;SDS011;66938;52.084;5.228;2024-02-21T06:38:52;16.9;;;9.81;;
77748;SDS011;66938;52.084;5.228;2024-02-21T06:42:04;17.41;;;9.81;;
77748;SDS011;66938;52.084;5.228;2024-02-21T06:43:40;18.0;;;10.9;;
77748;SDS011;66938;52.084;5.228;2024-02-21T06:45:16;19.3;;;11.0;;
77748;SDS011;66938;52.084;5.228;2024-02-21T06:48:29;17.41;;;11.3;;
77748;SDS011;66938;52.084;5.228;2024-02-21T06:50:05;20.6;;;12.1;;
77748;SDS011;66938;52.084;5.228;2024-02-21T06:51:42;18.41;;;11.7;;
77748;SDS011;66938;52.084;5.228;2024-02-21T06:54:54;19.0;;;11.5;;
77748;SDS011;66938;52.084;5.228;2024-02-21T06:56:30;20.0;;;12.4;;
77748;SDS011;66938;52.084;5.228;2024-02-21T06:58:07;18.91;;;11.2;;
77748;SDS011;66938;52.084;5.228;2024-02-21T06:59:43;19.61;;;11.8;;
77748;SDS011;66938;52.084;5.228;2024-02-21T07:02:55;22.7;;;12.6;;
77748;SDS011;66938;52.084;5.228;2024-02-21T07:04:31;20.8;;;12.2;;
77748;SDS011;66938;52.084;5.228;2024-02-21T07:06:07;19.91;;;12.2;;
77748;SDS011;66938;52.084;5.228;2024-02-21T07:09:19;19.91;;;11.8;;
77748;SDS011;66938;52.084;5.228;2024-02-21T07:10:55;21.9;;;12.5;;
77748;SDS011;66938;52.084;5.228;2024-02-21T07:12:31;21.1;;;12.6;;
77748;SDS011;66938;52.084;5.228;2024-02-21T07:15:44;23.9;;;12.0;;
77748;SDS011;66938;52.084;5.228;2024-02-21T07:17:20;21.4;;;12.6;;
77748;SDS011;66938;52.084;5.228;2024-02-21T07:18:56;22.0;;;12.3;;
77748;SDS011;66938;52.084;5.228;2024-02-21T07:22:08;24.3;;;12.4;;
77748;SDS011;66938;52.084;5.228;2024-02-21T07:23:44;19.61;;;12.2;;
77748;SDS011;66938;52.084;5.228;2024-02-21T07:25:20;21.8;;;12.1;;
77748;SDS011;66938;52.084;5.228;2024-02-21T07:26:56;21.8;;;12.1;;
77748;SDS011;66938;52.084;5.228;2024-02-21T07:30:09;21.7;;;12.0;;
77748;SDS011;66938;52.084;5.228;2024-02-21T07:31:46;20.8;;;11.1;;
77748;SDS011;66938;52.084;5.228;2024-02-21T07:33:22;24.3;;;11.8;;
77748;SDS011;66938;52.084;5.228;2024-02-21T07:36:34;21.7;;;11.7;;
77748;SDS011;66938;52.084;5.228;2024-02-21T07:38:11;20.41;;;11.6;;
77748;SDS011;66938;52.084;5.228;2024-02-21T07:39:47;18.3;;;10.6;;
77748;SDS011;66938;52.084;5.228;2024-02-21T07:43:00;19.8;;;11.5;;
77748;SDS011;66938;52.084;5.228;2024-02-21T07:44:36;21.9;;;11.1;;
77748;SDS011;66938;52.084;5.228;2024-02-21T07:47:49;17.5;;;10.4;;
77748;SDS011;66938;52.084;5.228;2024-02-21T07:49:25;21.9;;;11.4;;
77748;SDS011;66938;52.084;5.228;2024-02-21T07:51:01;21.3;;;11.2;;
77748;SDS011;66938;52.084;5.228;2024-02-21T07:52:37;21.3;;;11.2;;
77748;SDS011;66938;52.084;5.228;2024-02-21T07:55:50;20.2;;;11.9;;
77748;SDS011;66938;52.084;5.228;2024-02-21T07:57:26;18.5;;;10.9;;
77748;SDS011;66938;52.084;5.228;2024-02-21T07:59:02;19.7;;;11.5;;
77748;SDS011;66938;52.084;5.228;2024-02-21T08:02:15;21.1;;;11.1;;
77748;SDS011;66938;52.084;5.228;2024-02-21T08:03:52;19.2;;;11.3;;
77748;SDS011;66938;52.084;5.228;2024-02-21T08:05:28;19.3;;;10.5;;
77748;SDS011;66938;52.084;5.228;2024-02-21T08:08:40;19.11;;;10.8;;
77748;SDS011;66938;52.084;5.228;2024-02-21T08:10:17;21.1;;;10.8;;
77748;SDS011;66938;52.084;5.228;2024-02-21T08:11:53;20.0;;;10.6;;
77748;SDS011;66938;52.084;5.228;2024-02-21T08:13:30;21.8;;;10.9;;
77748;SDS011;66938;52.084;5.228;2024-02-21T08:16:44;17.2;;;10.8;;
77748;SDS011;66938;52.084;5.228;2024-02-21T08:18:23;20.3;;;10.7;;
77748;SDS011;66938;52.084;5.228;2024-02-21T08:20:00;18.3;;;10.8;;
77748;SDS011;66938;52.084;5.228;2024-02-21T08:23:12;17.91;;;11.0;;
77748;SDS011;66938;52.084;5.228;2024-02-21T08:24:48;18.5;;;10.7;;
77748;SDS011;66938;52.084;5.228;2024-02-21T08:26:24;18.41;;;10.7;;
77748;SDS011;66938;52.084;5.228;2024-02-21T08:29:36;17.11;;;10.7;;
77748;SDS011;66938;52.084;5.228;2024-02-21T08:31:18;19.41;;;11.7;;
77748;SDS011;66938;52.084;5.228;2024-02-21T08:32:54;21.4;;;11.4;;
77748;SDS011;66938;52.084;5.228;2024-02-21T08:34:30;20.0;;;11.4;;
77748;SDS011;66938;52.084;5.228;2024-02-21T08:37:43;18.61;;;12.2;;
77748;SDS011;66938;52.084;5.228;2024-02-21T08:39:19;20.0;;;11.8;;
77748;SDS011;66938;52.084;5.228;2024-02-21T08:40:55;17.41;;;11.5;;
77748;SDS011;66938;52.084;5.228;2024-02-21T08:44:10;21.9;;;12.3;;
77748;SDS011;66938;52.084;5.228;2024-02-21T08:45:46;19.61;;;11.9;;
77748;SDS011;66938;52.084;5.228;2024-02-21T08:47:22;18.91;;;11.7;;
77748;SDS011;66938;52.084;5.228;2024-02-21T08:48:58;20.3;;;12.1;;
77748;SDS011;66938;52.084;5.228;2024-02-21T08:52:10;22.0;;;12.3;;
77748;SDS011;66938;52.084;5.228;2024-02-21T08:53:47;20.5;;;11.7;;
77748;SDS011;66938;52.084;5.228;2024-02-21T08:55:25;19.61;;;12.2;;
77748;SDS011;66938;52.084;5.228;2024-02-21T08:58:37;19.3;;;10.9;;
77748;SDS011;66938;52.084;5.228;2024-02-21T09:00:15;18.91;;;11.2;;
77748;SDS011;66938;52.084;5.228;2024-02-21T09:01:52;18.2;;;11.0;;
77748;SDS011;66938;52.084;5.228;2024-02-21T09:05:04;18.3;;;10.8;;
77748;SDS011;66938;52.084;5.228;2024-02-21T09:06:44;16.4;;;9.81;;
77748;SDS011;66938;52.084;5.228;2024-02-21T09:08:20;17.11;;;10.4;;
77748;SDS011;66938;52.084;5.228;2024-02-21T09:09:57;18.8;;;10.4;;
77748;SDS011;66938;52.084;5.228;2024-02-21T09:13:10;18.8;;;10.4;;
77748;SDS011;66938;52.084;5.228;2024-02-21T09:14:46;17.41;;;10.0;;
77748;SDS011;66938;52.084;5.228;2024-02-21T09:16:22;17.61;;;9.81;;
77748;SDS011;66938;52.084;5.228;2024-02-21T09:19:35;18.2;;;10.0;;
77748;SDS011;66938;52.084;5.228;2024-02-21T09:21:11;16.7;;;10.0;;
77748;SDS011;66938;52.084;5.228;2024-02-21T09:22:48;16.5;;;9.6;;
77748;SDS011;66938;52.084;5.228;2024-02-21T09:26:01;16.2;;;9.21;;
77748;SDS011;66938;52.084;5.228;2024-02-21T09:27:37;16.4;;;9.9;;
77748;SDS011;66938;52.084;5.228;2024-02-21T09:29:14;14.9;;;9.81;;
77748;SDS011;66938;52.084;5.228;2024-02-21T09:30:51;15.9;;;9.4;;
77748;SDS011;66938;52.084;5.228;2024-02-21T09:34:03;18.0;;;9.31;;
77748;SDS011;66938;52.084;5.228;2024-02-21T09:35:39;19.8;;;9.0;;
77748;SDS011;66938;52.084;5.228;2024-02-21T09:37:15;14.9;;;8.9;;
77748;SDS011;66938;52.084;5.228;2024-02-21T09:40:31;13.8;;;8.31;;
77748;SDS011;66938;52.084;5.228;2024-02-21T09:42:09;14.8;;;8.9;;
77748;SDS011;66938;52.084;5.228;2024-02-21T09:43:47;15.4;;;8.81;;
77748;SDS011;66938;52.084;5.228;2024-02-21T09:47:02;12.7;;;8.0;;
77748;SDS011;66938;52.084;5.228;2024-02-21T09:48:42;15.1;;;8.31;;
77748;SDS011;66938;52.084;5.228;2024-02-21T09:50:34;13.6;;;8.1;;
77748;SDS011;66938;52.084;5.228;2024-02-21T09:52:14;13.9;;;7.7;;
77748;SDS011;66938;52.084;5.228;2024-02-21T09:53:51;16.4;;;8.5;;
77748;SDS011;66938;52.084;5.228;2024-02-21T09:57:08;12.0;;;7.2;;
77748;SDS011;66938;52.084;5.228;2024-02-21T09:58:46;13.1;;;7.8;;
77748;SDS011;66938;52.084;5.228;2024-02-21T10:00:22;13.3;;;7.0;;
77748;SDS011;66938;52.084;5.228;2024-02-21T10:03:38;13.2;;;7.6;;
77748;SDS011;66938;52.084;5.228;2024-02-21T10:05:14;12.1;;;7.6;;
77748;SDS011;66938;52.084;5.228;2024-02-21T10:06:50;11.9;;;7.2;;
77748;SDS011;66938;52.084;5.228;2024-02-21T10:10:03;13.5;;;8.2;;
77748;SDS011;66938;52.084;5.228;2024-02-21T10:11:40;13.0;;;7.6;;
77748;SDS011;66938;52.084;5.228;2024-02-21T10:13:23;10.4;;;6.8;;
77748;SDS011;66938;52.084;5.228;2024-02-21T10:15:01;12.4;;;7.2;;
77748;SDS011;66938;52.084;5.228;2024-02-21T10:18:15;10.7;;;7.3;;
77748;SDS011;66938;52.084;5.228;2024-02-21T10:19:53;9.6;;;6.7;;
77748;SDS011;66938;52.084;5.228;2024-02-21T10:21:30;10.9;;;6.3;;
77748;SDS011;66938;52.084;5.228;2024-02-21T10:24:45;10.21;;;6.3;;
77748;SDS011;66938;52.084;5.228;2024-02-21T10:26:21;10.6;;;6.4;;
77748;SDS011;66938;52.084;5.228;2024-02-21T10:27:58;8.9;;;6.0;;
77748;SDS011;66938;52.084;5.228;2024-02-21T10:29:34;10.6;;;6.1;;
77748;SDS011;66938;52.084;5.228;2024-02-21T10:32:57;10.21;;;6.4;;
77748;SDS011;66938;52.084;5.228;2024-02-21T10:34:33;9.6;;;6.4;;
77748;SDS011;66938;52.084;5.228;2024-02-21T10:36:11;9.1;;;6.1;;
77748;SDS011;66938;52.084;5.228;2024-02-21T10:37:48;10.4;;;6.4;;
77748;SDS011;66938;52.084;5.228;2024-02-21T10:41:00;9.6;;;6.3;;
77748;SDS011;66938;52.084;5.228;2024-02-21T10:42:36;8.81;;;5.6;;
77748;SDS011;66938;52.084;5.228;2024-02-21T10:44:13;8.5;;;5.5;;
77748;SDS011;66938;52.084;5.228;2024-02-21T10:47:34;10.6;;;6.0;;
77748;SDS011;66938;52.084;5.228;2024-02-21T10:49:16;8.81;;;5.7;;
77748;SDS011;66938;52.084;5.228;2024-02-21T10:51:01;8.9;;;5.7;;
77748;SDS011;66938;52.084;5.228;2024-02-21T10:52:48;7.0;;;5.11;;
77748;SDS011;66938;52.084;5.228;2024-02-21T10:54:39;8.5;;;5.3;;
77748;SDS011;66938;52.084;5.228;2024-02-21T10:58:07;8.6;;;5.5;;
77748;SDS011;66938;52.084;5.228;2024-02-21T10:59:46;7.6;;;5.2;;
77748;SDS011;66938;52.084;5.228;2024-02-21T11:01:24;7.2;;;5.11;;
77748;SDS011;66938;52.084;5.228;2024-02-21T11:03:03;7.8;;;5.5;;
77748;SDS011;66938;52.084;5.228;2024-02-21T11:06:18;7.9;;;5.6;;
77748;SDS011;66938;52.084;5.228;2024-02-21T11:07:55;8.1;;;5.6;;
77748;SDS011;66938;52.084;5.228;2024-02-21T11:09:34;7.8;;;5.2;;
77748;SDS011;66938;52.084;5.228;2024-02-21T11:12:49;8.31;;;6.3;;
77748;SDS011;66938;52.084;5.228;2024-02-21T11:14:28;9.1;;;6.5;;
77748;SDS011;66938;52.084;5.228;2024-02-21T11:16:06;12.0;;;7.3;;
77748;SDS011;66938;52.084;5.228;2024-02-21T11:17:53;9.21;;;7.0;;
77748;SDS011;66938;52.084;5.228;2024-02-21T11:21:06;10.4;;;7.3;;
77748;SDS011;66938;52.084;5.228;2024-02-21T11:22:42;9.71;;;7.1;;
77748;SDS011;66938;52.084;5.228;2024-02-21T11:24:26;11.1;;;7.9;;
77748;SDS011;66938;52.084;5.228;2024-02-21T11:26:04;9.9;;;7.8;;
77748;SDS011;66938;52.084;5.228;2024-02-21T11:29:23;11.2;;;8.4;;
77748;SDS011;66938;52.084;5.228;2024-02-21T11:31:06;10.9;;;8.31;;
77748;SDS011;66938;52.084;5.228;2024-02-21T11:32:45;10.8;;;8.1;;
77748;SDS011;66938;52.084;5.228;2024-02-21T11:34:21;12.0;;;8.2;;
77748;SDS011;66938;52.084;5.228;2024-02-21T11:37:34;10.21;;;8.1;;
77748;SDS011;66938;52.084;5.228;2024-02-21T11:39:11;11.1;;;8.1;;
77748;SDS011;66938;52.084;5.228;2024-02-21T11:40:47;12.7;;;7.9;;
77748;SDS011;66938;52.084;5.228;2024-02-21T11:44:04;9.81;;;7.6;;
77748;SDS011;66938;52.084;5.228;2024-02-21T11:45:40;10.5;;;7.8;;
77748;SDS011;66938;52.084;5.228;2024-02-21T11:47:16;8.81;;;7.4;;
77748;SDS011;66938;52.084;5.228;2024-02-21T11:50:28;11.6;;;7.6;;
77748;SDS011;66938;52.084;5.228;2024-02-21T11:52:06;9.81;;;6.6;;
77748;SDS011;66938;52.084;5.228;2024-02-21T11:53:42;9.4;;;7.1;;
77748;SDS011;66938;52.084;5.228;2024-02-21T11:55:18;9.71;;;7.1;;
77748;SDS011;66938;52.084;5.228;2024-02-21T11:58:31;9.0;;;6.9;;
77748;SDS011;66938;52.084;5.228;2024-02-21T12:00:12;9.21;;;6.9;;
77748;SDS011;66938;52.084;5.228;2024-02-21T12:01:52;10.21;;;7.2;;
77748;SDS011;66938;52.084;5.228;2024-02-21T12:05:06;11.7;;;6.6;;
77748;SDS011;66938;52.084;5.228;2024-02-21T12:06:43;9.81;;;6.2;;
77748;SDS011;66938;52.084;5.228;2024-02-21T12:08:20;9.9;;;6.7;;
77748;SDS011;66938;52.084;5.228;2024-02-21T12:09:58;10.5;;;6.5;;
77748;SDS011;66938;52.084;5.228;2024-02-21T12:13:11;10.4;;;6.4;;
77748;SDS011;66938;52.084;5.228;2024-02-21T12:14:53;9.9;;;6.2;;
77748;SDS011;66938;52.084;5.228;2024-02-21T12:16:31;10.5;;;6.0;;
77748;SDS011;66938;52.084;5.228;2024-02-21T12:19:46;10.4;;;6.5;;
77748;SDS011;66938;52.084;5.228;2024-02-21T12:21:23;9.81;;;6.2;;
77748;SDS011;66938;52.084;5.228;2024-02-21T12:23:00;9.81;;;6.5;;
77748;SDS011;66938;52.084;5.228;2024-02-21T12:24:37;8.9;;;6.4;;
77748;SDS011;66938;52.084;5.228;2024-02-21T12:27:50;11.8;;;6.3;;
77748;SDS011;66938;52.084;5.228;2024-02-21T12:29:26;9.1;;;6.3;;
77748;SDS011;66938;52.084;5.228;2024-02-21T12:31:01;9.4;;;6.2;;
77748;SDS011;66938;52.084;5.228;2024-02-21T12:34:14;9.0;;;5.8;;
77748;SDS011;66938;52.084;5.228;2024-02-21T12:35:51;9.4;;;6.1;;
77748;SDS011;66938;52.084;5.228;2024-02-21T12:37:27;9.1;;;6.2;;
77748;SDS011;66938;52.084;5.228;2024-02-21T12:40:39;11.8;;;6.1;;
77748;SDS011;66938;52.084;5.228;2024-02-21T12:42:15;9.31;;;5.6;;
77748;SDS011;66938;52.084;5.228;2024-02-21T12:43:51;9.21;;;5.9;;